Terminal Aerodrome Forecast
Issued by NWS Grand Junction, CO

Home | Current Version | Previous Version | Text Only | Print | Product List | Glossary On
Versions: 1 2 3 4 5 6 7 8 9 10 11 12 13 14 15 16 17 18 19 20 21 22 23 24 25 26
000
FTUS45 KGJT 182338
TAFGJT
TAF
KGJT 182338Z 1900/1924 29006KT P6SM VCTS FEW070CB BKN140
      TEMPO 1900/1902 VRB15G25KT -TSRA BKN040CB
     FM190200 23006KT P6SM VCSH FEW080 SCT100
     FM190400 10006KT P6SM SCT060 BKN100
     FM191500 14005KT P6SM FEW070 SCT250
     FM192100 27010G20KT P6SM SKC=

USA.gov is the U.S. government's official web portal to all federal, state and local government web resources and services.